createdAt,value
2022-09-22T00:01:07.108Z,4.60
2022-09-22T00:03:36.331Z,5.45
2022-09-22T00:06:07.272Z,5.13
2022-09-22T00:08:37.625Z,5.32
2022-09-22T00:11:09.157Z,4.53
2022-09-22T00:13:37.396Z,4.72
2022-09-22T00:16:09.735Z,5.03
2022-09-22T00:18:37.971Z,5.10
2022-09-22T00:21:12.287Z,4.32
2022-09-22T00:23:41.165Z,5.15
2022-09-22T00:26:13.779Z,4.60
2022-09-22T00:28:42.484Z,4.35
2022-09-22T00:31:13.340Z,5.72
2022-09-22T00:33:42.491Z,4.32
2022-09-22T00:36:11.948Z,5.35
2022-09-22T00:38:41.183Z,4.97
2022-09-22T00:41:16.583Z,5.78
2022-09-22T00:43:47.954Z,5.15
2022-09-22T00:46:20.213Z,5.32
2022-09-22T00:48:52.878Z,5.35
2022-09-22T00:51:24.741Z,4.30
2022-09-22T00:53:53.240Z,4.72
2022-09-22T00:56:25.970Z,4.28
2022-09-22T00:58:56.596Z,4.68
2022-09-22T01:01:24.410Z,4.07
2022-09-22T01:03:52.129Z,4.47
2022-09-22T01:06:26.652Z,3.90
2022-09-22T01:08:55.207Z,3.80
2022-09-22T01:11:23.689Z,4.95
2022-09-22T01:14:04.893Z,3.67
2022-09-22T01:16:46.068Z,3.95
2022-09-22T01:19:40.264Z,4.10
2022-09-22T01:22:22.534Z,4.47
2022-09-22T01:25:08.416Z,4.88
2022-09-22T01:28:16.487Z,3.85
2022-09-22T01:30:50.086Z,3.92
2022-09-22T01:33:30.371Z,4.72
2022-09-22T01:36:21.940Z,3.88
2022-09-22T01:39:02.451Z,3.70
2022-09-22T01:41:46.518Z,4.85
2022-09-22T01:44:18.546Z,4.20
2022-09-22T01:46:55.211Z,3.80
2022-09-22T01:49:24.968Z,4.20
2022-09-22T01:51:56.198Z,3.90
2022-09-22T01:54:29.938Z,4.32
2022-09-22T01:57:05.793Z,4.30
2022-09-22T01:59:37.847Z,4.22
2022-09-22T02:02:20.683Z,4.68
2022-09-22T02:04:53.750Z,3.70
2022-09-22T02:07:27.066Z,6.90
2022-09-22T02:09:55.232Z,3.85
2022-09-22T02:12:22.887Z,3.60
2022-09-22T02:14:50.954Z,3.95
2022-09-22T02:17:20.258Z,4.60
2022-09-22T02:19:48.084Z,3.70
2022-09-22T02:22:15.755Z,4.18
2022-09-22T02:24:45.335Z,4.65
2022-09-22T02:27:16.403Z,4.70
2022-09-22T02:29:50.442Z,3.83
2022-09-22T02:32:20.445Z,4.50
2022-09-22T02:34:48.686Z,4.13
2022-09-22T02:37:23.420Z,3.70
2022-09-22T02:40:04.019Z,4.20
2022-09-22T02:42:36.054Z,4.57
2022-09-22T02:45:12.213Z,4.05
2022-09-22T02:47:46.796Z,4.35
2022-09-22T02:50:18.285Z,4.28
2022-09-22T02:52:45.986Z,3.90
2022-09-22T02:55:14.780Z,4.20
2022-09-22T02:57:43.644Z,3.78
2022-09-22T03:00:12.346Z,5.25
2022-09-22T03:02:41.378Z,4.38
2022-09-22T03:05:09.152Z,4.78
2022-09-22T03:07:37.007Z,4.45
2022-09-22T03:10:05.171Z,3.80
2022-09-22T03:12:32.821Z,4.50
2022-09-22T03:15:00.450Z,4.53
2022-09-22T03:17:28.063Z,3.40
2022-09-22T03:19:56.991Z,4.20
2022-09-22T03:22:24.820Z,4.38
2022-09-22T03:24:52.413Z,4.63
2022-09-22T03:27:20.004Z,4.13
2022-09-22T03:29:47.678Z,4.85
2022-09-22T03:32:15.294Z,4.30
2022-09-22T03:34:42.892Z,4.32
2022-09-22T03:37:11.932Z,4.30
2022-09-22T03:39:39.534Z,4.55
2022-09-22T03:42:07.432Z,4.32
2022-09-22T03:44:35.060Z,4.65
2022-09-22T03:47:03.050Z,3.58
2022-09-22T03:49:31.255Z,4.15
2022-09-22T03:51:59.089Z,4.60
2022-09-22T03:54:28.130Z,4.10
2022-09-22T03:56:55.812Z,3.67
2022-09-22T03:59:23.399Z,3.85
2022-09-22T04:01:53.579Z,3.17
2022-09-22T04:04:25.406Z,4.35
2022-09-22T04:06:53.332Z,3.60
2022-09-22T04:09:21.201Z,3.38
2022-09-22T04:11:50.403Z,3.78
2022-09-22T04:14:18.042Z,4.20
2022-09-22T04:16:45.993Z,3.50
2022-09-22T04:19:14.315Z,3.65
2022-09-22T04:21:42.117Z,3.70
2022-09-22T04:24:10.846Z,4.32
2022-09-22T04:26:47.578Z,3.53
2022-09-22T04:29:25.491Z,3.30
2022-09-22T04:31:53.069Z,3.70
2022-09-22T04:34:20.676Z,4.13
2022-09-22T04:36:48.294Z,3.53
2022-09-22T04:39:18.265Z,4.00
2022-09-22T04:41:49.242Z,3.88
2022-09-22T04:44:16.854Z,4.15
2022-09-22T04:46:46.309Z,3.38
2022-09-22T04:49:14.027Z,4.07
2022-09-22T04:51:41.667Z,3.83
2022-09-22T04:54:09.342Z,4.07
2022-09-22T04:56:36.955Z,3.78
2022-09-22T04:59:04.579Z,3.53
2022-09-22T05:01:32.294Z,3.58
2022-09-22T05:04:01.555Z,3.72
2022-09-22T05:06:29.285Z,4.38
2022-09-22T05:08:57.190Z,4.28
2022-09-22T05:11:24.944Z,5.57
2022-09-22T05:13:52.634Z,3.72
2022-09-22T05:16:20.361Z,4.70
2022-09-22T05:18:50.126Z,4.82
2022-09-22T05:21:19.697Z,4.65
2022-09-22T05:23:47.810Z,4.70
2022-09-22T05:26:15.470Z,4.75
2022-09-22T05:28:43.185Z,4.45
2022-09-22T05:31:10.784Z,3.65
2022-09-22T05:33:38.772Z,4.80
2022-09-22T05:36:06.760Z,4.00
2022-09-22T05:38:35.720Z,5.05
2022-09-22T05:41:03.763Z,4.80
2022-09-22T05:43:31.380Z,6.20
2022-09-22T05:45:59.039Z,4.38
2022-09-22T05:48:31.043Z,7.55
2022-09-22T05:50:59.281Z,4.50
2022-09-22T05:53:27.497Z,4.22
2022-09-22T05:55:57.167Z,3.35
2022-09-22T05:58:24.849Z,3.75
2022-09-22T06:00:52.676Z,4.15
2022-09-22T06:03:20.328Z,2.83
2022-09-22T06:05:47.944Z,3.28
2022-09-22T06:08:15.955Z,2.92
2022-09-22T06:10:45.156Z,2.80
2022-09-22T06:13:14.087Z,2.60
2022-09-22T06:15:46.346Z,2.23
2022-09-22T06:18:15.369Z,3.00
2022-09-22T06:20:43.752Z,2.70
2022-09-22T06:23:12.554Z,2.53
2022-09-22T06:25:40.459Z,2.63
2022-09-22T06:28:09.575Z,2.80
2022-09-22T06:30:40.064Z,2.80
2022-09-22T06:33:07.969Z,2.73
2022-09-22T06:35:37.644Z,2.60
2022-09-22T06:38:06.969Z,2.60
2022-09-22T06:40:36.492Z,3.07
2022-09-22T06:43:11.933Z,3.20
2022-09-22T06:45:42.492Z,3.20
2022-09-22T06:48:11.646Z,2.47
2022-09-22T06:50:40.801Z,2.90
2022-09-22T06:53:12.216Z,3.17
2022-09-22T06:55:41.472Z,2.63
2022-09-22T06:58:10.322Z,2.20
2022-09-22T07:00:38.905Z,2.70
2022-09-22T07:03:11.407Z,3.10
2022-09-22T07:05:39.004Z,2.37
2022-09-22T07:08:08.689Z,2.70
2022-09-22T07:10:38.035Z,2.10
2022-09-22T07:13:06.786Z,2.53
2022-09-22T07:15:35.472Z,2.83
2022-09-22T07:18:03.055Z,2.27
2022-09-22T07:20:33.576Z,2.60
2022-09-22T07:23:01.265Z,2.57
2022-09-22T07:25:29.647Z,2.67
2022-09-22T07:27:57.974Z,2.60
2022-09-22T07:30:26.186Z,2.10
2022-09-22T07:32:53.828Z,2.70
2022-09-22T07:35:21.407Z,2.50
2022-09-22T07:37:55.181Z,2.50
2022-09-22T07:40:22.880Z,2.50
2022-09-22T07:42:50.631Z,2.10
2022-09-22T07:45:18.372Z,2.33
2022-09-22T07:48:04.500Z,2.40
2022-09-22T07:50:32.170Z,1.90
2022-09-22T07:53:01.128Z,2.10
2022-09-22T07:55:28.792Z,2.20
2022-09-22T07:57:57.355Z,1.90
2022-09-22T08:00:25.957Z,1.60
2022-09-22T08:02:55.360Z,1.70
2022-09-22T08:05:23.972Z,1.87
2022-09-22T08:07:52.025Z,2.00
2022-09-22T08:10:21.336Z,1.80
2022-09-22T08:12:49.468Z,2.17
2022-09-22T08:15:18.317Z,2.20
2022-09-22T08:17:46.044Z,1.73
2022-09-22T08:20:13.691Z,2.53
2022-09-22T08:22:41.588Z,2.70
2022-09-22T08:25:12.385Z,1.80
2022-09-22T08:27:41.417Z,2.10
2022-09-22T08:30:11.851Z,2.10
2022-09-22T08:32:39.520Z,1.80
2022-09-22T08:35:08.998Z,1.93
2022-09-22T08:37:37.926Z,2.10
2022-09-22T08:40:06.886Z,1.93
2022-09-22T08:42:35.011Z,1.90
2022-09-22T08:45:09.256Z,1.87
2022-09-22T08:48:00.423Z,1.93
2022-09-22T08:50:52.796Z,1.67
2022-09-22T08:53:23.241Z,1.60
2022-09-22T08:55:58.372Z,1.90
2022-09-22T08:58:37.214Z,1.60
2022-09-22T09:01:18.889Z,1.50
2022-09-22T09:03:57.651Z,1.43
2022-09-22T09:06:34.775Z,1.40
2022-09-22T09:09:24.186Z,1.63
2022-09-22T09:12:06.725Z,1.50
2022-09-22T09:14:49.947Z,1.50
2022-09-22T09:17:24.024Z,1.10
2022-09-22T09:19:56.228Z,1.40
2022-09-22T09:22:28.467Z,1.30
2022-09-22T09:27:51.176Z,1.20
2022-09-22T09:30:20.928Z,1.30
2022-09-22T09:32:52.891Z,1.23
2022-09-22T09:35:26.456Z,1.17
2022-09-22T09:37:58.043Z,1.33
2022-09-22T09:40:26.001Z,1.10
2022-09-22T09:42:58.697Z,1.40
2022-09-22T09:45:32.421Z,1.07
2022-09-22T09:48:12.599Z,0.90
2022-09-22T09:50:40.272Z,0.90
2022-09-22T09:53:24.136Z,1.40
2022-09-22T09:55:51.734Z,1.30
2022-09-22T09:58:33.450Z,0.90
2022-09-22T10:01:02.246Z,1.30
2022-09-22T10:03:34.255Z,1.00
2022-09-22T10:06:06.270Z,1.03
2022-09-22T10:08:43.370Z,1.23
2022-09-22T10:11:12.620Z,1.00
2022-09-22T10:13:42.546Z,0.90
2022-09-22T10:16:34.218Z,1.10
2022-09-22T10:19:27.046Z,1.20
2022-09-22T10:22:14.757Z,0.97
2022-09-22T10:24:42.431Z,1.23
2022-09-22T10:27:21.787Z,1.20
2022-09-22T10:29:58.131Z,1.07
2022-09-22T10:32:25.777Z,1.40
2022-09-22T10:34:59.420Z,1.33
2022-09-22T10:37:30.288Z,1.27
2022-09-22T10:40:02.632Z,0.93
2022-09-22T10:42:35.370Z,0.90
2022-09-22T10:45:06.936Z,1.40
2022-09-22T10:47:49.082Z,0.97
2022-09-22T10:50:45.785Z,1.20
2022-09-22T10:53:32.270Z,1.03
2022-09-22T10:56:09.349Z,1.07
2022-09-22T10:59:01.571Z,1.23
2022-09-22T11:01:48.604Z,1.50
2022-09-22T11:04:33.636Z,1.27
2022-09-22T11:07:34.308Z,0.90
2022-09-22T11:10:35.320Z,1.13
2022-09-22T11:13:14.889Z,1.00
2022-09-22T11:15:58.025Z,1.20
2022-09-22T11:18:55.847Z,1.10
2022-09-22T11:21:36.675Z,1.10
2022-09-22T11:24:23.469Z,1.20
2022-09-22T11:26:55.186Z,1.13
2022-09-22T11:29:45.290Z,1.20
2022-09-22T11:32:27.458Z,1.07
2022-09-22T11:35:07.230Z,1.07
2022-09-22T11:37:49.632Z,1.00
2022-09-22T11:40:33.522Z,1.20
2022-09-22T11:43:22.297Z,0.90
2022-09-22T11:45:57.080Z,1.20
2022-09-22T11:48:39.296Z,1.30
2022-09-22T11:51:20.631Z,1.23
2022-09-22T11:54:02.332Z,1.10
2022-09-22T11:56:39.572Z,0.90
2022-09-22T11:59:17.627Z,1.00
2022-09-22T12:01:48.270Z,0.90
2022-09-22T12:04:23.645Z,0.93
2022-09-22T12:06:56.751Z,0.90
2022-09-22T12:09:36.747Z,1.00
2022-09-22T12:12:12.695Z,1.10
2022-09-22T12:14:41.472Z,1.20
2022-09-22T12:17:16.091Z,0.90
2022-09-22T12:19:57.684Z,1.23
2022-09-22T12:22:31.167Z,1.03
2022-09-22T12:24:58.754Z,1.30
2022-09-22T12:27:29.721Z,0.87
2022-09-22T12:30:00.146Z,1.00
2022-09-22T12:32:36.265Z,1.00
2022-09-22T12:35:04.922Z,1.07
2022-09-22T12:37:34.598Z,1.00
2022-09-22T12:40:23.380Z,1.33
2022-09-22T12:42:54.510Z,1.10
2022-09-22T12:45:30.387Z,1.20
2022-09-22T12:48:00.320Z,1.37
2022-09-22T12:50:35.153Z,1.20
2022-09-22T12:53:06.737Z,1.20
2022-09-22T12:55:41.919Z,1.60
2022-09-22T12:58:45.163Z,1.63
2022-09-22T13:01:32.464Z,1.57
2022-09-22T13:04:12.898Z,1.47
2022-09-22T13:06:57.944Z,1.20
2022-09-22T13:09:29.943Z,1.27
2022-09-22T13:12:23.163Z,1.70
2022-09-22T13:15:16.071Z,1.30
2022-09-22T13:17:45.679Z,1.37
2022-09-22T13:20:19.120Z,1.57
2022-09-22T13:22:46.875Z,1.17
2022-09-22T13:25:17.617Z,1.73
2022-09-22T13:27:45.860Z,1.43
2022-09-22T13:30:16.032Z,1.70
2022-09-22T13:32:49.692Z,1.33
2022-09-22T13:35:28.411Z,1.13
2022-09-22T13:37:58.729Z,1.50
2022-09-22T13:40:28.858Z,1.50
2022-09-22T13:43:01.312Z,1.67
2022-09-22T13:45:30.500Z,1.93
2022-09-22T13:48:08.340Z,1.70
2022-09-22T13:50:42.268Z,1.30
2022-09-22T13:53:10.103Z,1.53
2022-09-22T13:55:38.614Z,1.60
2022-09-22T13:58:11.265Z,1.60
2022-09-22T14:01:11.591Z,2.10
2022-09-22T14:03:38.300Z,1.30
2022-09-22T14:06:10.358Z,1.60
2022-09-22T14:08:38.320Z,1.30
2022-09-22T14:11:09.134Z,1.40
2022-09-22T14:13:38.278Z,1.03
2022-09-22T14:16:16.302Z,1.43
2022-09-22T14:18:46.955Z,1.20
2022-09-22T14:21:14.813Z,1.13
2022-09-22T14:23:48.755Z,1.27
2022-09-22T14:26:27.061Z,1.30
2022-09-22T14:28:57.784Z,1.83
2022-09-22T14:31:29.890Z,1.43
2022-09-22T14:33:57.995Z,1.30
2022-09-22T14:36:26.770Z,1.30
2022-09-22T14:39:08.050Z,1.30
2022-09-22T14:41:38.307Z,1.23
2022-09-22T14:44:35.174Z,1.10
2022-09-22T14:47:21.678Z,1.20
2022-09-22T14:49:49.323Z,1.20
2022-09-22T14:52:26.841Z,1.50
2022-09-22T14:54:55.919Z,1.27
2022-09-22T14:57:24.333Z,1.30
2022-09-22T15:00:13.349Z,1.10
2022-09-22T15:02:46.955Z,1.33
2022-09-22T15:05:29.403Z,1.20
2022-09-22T15:07:59.666Z,1.17
2022-09-22T15:10:29.610Z,1.60
2022-09-22T15:13:18.355Z,1.30
2022-09-22T15:15:47.883Z,1.23
2022-09-22T15:18:19.153Z,1.40
2022-09-22T15:20:49.878Z,1.43
2022-09-22T15:23:21.508Z,1.50
2022-09-22T15:25:50.622Z,1.37
2022-09-22T15:28:19.910Z,1.17
2022-09-22T15:30:49.343Z,0.80
2022-09-22T15:33:19.502Z,1.20
2022-09-22T15:35:49.014Z,1.30
2022-09-22T15:38:19.743Z,1.37
2022-09-22T15:40:48.226Z,1.93
2022-09-22T15:43:20.589Z,1.53
2022-09-22T15:45:50.074Z,1.27
2022-09-22T15:48:28.356Z,1.10
2022-09-22T15:50:56.947Z,1.40
2022-09-22T15:53:25.211Z,1.40
2022-09-22T15:55:54.102Z,1.00
2022-09-22T15:58:23.771Z,2.17
2022-09-22T16:00:51.748Z,2.17
2022-09-22T16:03:23.334Z,1.67
2022-09-22T16:05:56.899Z,1.40
2022-09-22T16:08:31.233Z,1.37
2022-09-22T16:11:05.520Z,1.10
2022-09-22T16:13:33.822Z,1.17
2022-09-22T16:16:02.959Z,1.40
2022-09-22T16:18:32.809Z,1.27
2022-09-22T16:21:05.854Z,1.57
2022-09-22T16:23:34.229Z,1.20
2022-09-22T16:26:01.852Z,1.33
2022-09-22T16:28:29.570Z,1.37
2022-09-22T16:31:02.096Z,1.50
2022-09-22T16:33:29.926Z,1.40
2022-09-22T16:35:57.558Z,1.27
2022-09-22T16:38:26.487Z,1.10
2022-09-22T16:41:01.477Z,1.10
2022-09-22T16:43:29.126Z,1.30
2022-09-22T16:46:14.500Z,1.20
2022-09-22T16:48:42.517Z,1.40
2022-09-22T16:51:14.149Z,1.20
2022-09-22T16:53:44.081Z,1.33
2022-09-22T16:56:11.780Z,1.30
2022-09-22T16:58:39.367Z,1.70
2022-09-22T17:01:06.990Z,1.43
2022-09-22T17:03:34.644Z,1.50
2022-09-22T17:06:05.477Z,1.13
2022-09-22T17:08:33.489Z,1.47
2022-09-22T17:11:03.816Z,1.57
2022-09-22T17:13:33.579Z,1.50
2022-09-22T17:16:10.173Z,1.33
2022-09-22T17:18:40.216Z,1.47
2022-09-22T17:21:08.787Z,1.30
2022-09-22T17:23:37.025Z,1.50
2022-09-22T17:26:11.420Z,1.50
2022-09-22T17:28:39.321Z,1.70
2022-09-22T17:31:07.434Z,2.07
2022-09-22T17:33:37.157Z,2.10
2022-09-22T17:36:06.236Z,1.73
2022-09-22T17:38:38.203Z,1.40
2022-09-22T17:44:55.798Z,1.90
2022-09-22T17:47:42.498Z,2.20
2022-09-22T17:50:30.429Z,1.63
2022-09-22T17:53:15.471Z,1.87
2022-09-22T17:55:43.171Z,3.90
2022-09-22T17:58:12.221Z,2.57
2022-09-22T18:00:39.908Z,2.53
2022-09-22T18:03:07.534Z,2.00
2022-09-22T18:05:38.715Z,2.17
2022-09-22T18:08:06.835Z,1.77
2022-09-22T18:10:34.469Z,1.93
2022-09-22T18:13:02.985Z,2.50
2022-09-22T18:15:32.264Z,3.53
2022-09-22T18:17:59.900Z,3.40
2022-09-22T18:20:27.712Z,3.67
2022-09-22T18:22:57.753Z,4.27
2022-09-22T18:25:25.576Z,3.63
2022-09-22T18:27:55.013Z,3.30
2022-09-22T18:30:22.977Z,3.40
2022-09-22T18:32:52.242Z,3.10
2022-09-22T18:35:20.071Z,3.60
2022-09-22T18:37:47.723Z,3.57
2022-09-22T18:40:16.913Z,3.70
2022-09-22T18:42:44.779Z,4.40
2022-09-22T18:45:12.456Z,4.10
2022-09-22T18:47:43.403Z,4.80
2022-09-22T18:50:13.308Z,4.90
2022-09-22T18:52:42.974Z,4.03
2022-09-22T18:55:11.834Z,4.30
2022-09-22T18:57:39.449Z,4.10
2022-09-22T19:00:08.767Z,4.03
2022-09-22T19:02:36.460Z,4.23
2022-09-22T19:05:04.609Z,3.80
2022-09-22T19:07:42.391Z,4.57
2022-09-22T19:10:11.305Z,3.60
2022-09-22T19:12:40.225Z,4.13
2022-09-22T19:15:13.166Z,5.20
2022-09-22T19:17:44.040Z,4.47
2022-09-22T19:20:14.490Z,4.70
2022-09-22T19:22:43.930Z,4.37
2022-09-22T19:25:12.034Z,4.77
2022-09-22T19:27:40.613Z,3.83
2022-09-22T19:30:09.560Z,3.40
2022-09-22T19:32:37.676Z,4.07
2022-09-22T19:35:06.183Z,3.60
2022-09-22T19:37:36.171Z,4.33
2022-09-22T19:40:06.712Z,4.00
2022-09-22T19:42:40.028Z,5.10
2022-09-22T19:45:08.558Z,4.83
2022-09-22T19:47:36.287Z,6.87
2022-09-22T19:50:05.134Z,6.50
2022-09-22T19:52:33.891Z,6.83
2022-09-22T19:55:01.565Z,8.27
2022-09-22T19:57:31.785Z,7.40
2022-09-22T19:59:59.563Z,7.13
2022-09-22T20:02:27.320Z,6.30
2022-09-22T20:04:55.849Z,5.53
2022-09-22T20:07:27.685Z,5.10
2022-09-22T20:09:56.357Z,4.33
2022-09-22T20:12:24.058Z,4.70
2022-09-22T20:14:53.250Z,4.13
2022-09-22T20:17:20.859Z,5.23
2022-09-22T20:19:48.509Z,4.10
2022-09-22T20:22:20.698Z,4.67
2022-09-22T20:24:53.799Z,4.40
2022-09-22T20:27:25.874Z,5.33
2022-09-22T20:29:57.304Z,7.23
2022-09-22T20:32:26.441Z,4.70
2022-09-22T20:34:55.224Z,5.20
2022-09-22T20:37:24.382Z,3.77
2022-09-22T20:39:52.208Z,4.40
2022-09-22T20:42:19.925Z,4.33
2022-09-22T20:44:49.004Z,4.60
2022-09-22T20:47:19.345Z,4.30
2022-09-22T20:49:51.515Z,4.20
2022-09-22T20:52:21.067Z,4.13
2022-09-22T20:54:49.461Z,4.10
2022-09-22T20:57:17.419Z,3.50
2022-09-22T20:59:45.474Z,4.50
2022-09-22T21:02:13.892Z,4.00
2022-09-22T21:04:43.156Z,4.67
2022-09-22T21:07:11.528Z,4.77
2022-09-22T21:09:56.827Z,5.47
2022-09-22T21:12:30.723Z,4.50
2022-09-22T21:14:59.282Z,4.60
2022-09-22T21:17:27.606Z,4.33
2022-09-22T21:19:57.724Z,4.30
2022-09-22T21:22:27.929Z,4.17
2022-09-22T21:24:56.107Z,4.80
2022-09-22T21:27:24.643Z,4.93
2022-09-22T21:29:53.033Z,4.50
2022-09-22T21:32:20.740Z,4.20
2022-09-22T21:34:48.385Z,3.93
2022-09-22T21:37:17.422Z,3.63
2022-09-22T21:39:45.036Z,4.32
2022-09-22T21:42:12.782Z,3.97
2022-09-22T21:44:40.448Z,5.10
2022-09-22T21:47:08.070Z,4.20
2022-09-22T21:49:35.725Z,5.72
2022-09-22T21:52:03.502Z,4.45
2022-09-22T21:54:32.428Z,3.92
2022-09-22T21:57:00.040Z,4.07
2022-09-22T21:59:27.633Z,4.60
2022-09-22T22:01:55.340Z,4.80
2022-09-22T22:04:23.048Z,5.03
2022-09-22T22:06:51.537Z,3.42
2022-09-22T22:09:23.186Z,5.05
2022-09-22T22:11:55.483Z,4.10
2022-09-22T22:14:25.509Z,4.50
2022-09-22T22:16:55.850Z,4.72
2022-09-22T22:19:26.731Z,4.78
2022-09-22T22:21:55.132Z,3.88
2022-09-22T22:24:28.766Z,3.33
2022-09-22T22:27:01.186Z,4.10
2022-09-22T22:29:31.761Z,3.90
2022-09-22T22:31:59.722Z,4.05
2022-09-22T22:34:27.598Z,3.50
2022-09-22T22:36:55.951Z,3.42
2022-09-22T22:39:23.620Z,3.95
2022-09-22T22:41:53.782Z,3.70
2022-09-22T22:44:23.005Z,3.95
2022-09-22T22:46:50.973Z,3.90
2022-09-22T22:49:18.585Z,4.00
2022-09-22T22:51:46.168Z,3.58
2022-09-22T22:54:14.499Z,3.40
2022-09-22T22:56:44.320Z,4.40
2022-09-22T22:59:14.676Z,3.60
2022-09-22T23:01:44.277Z,3.70
2022-09-22T23:04:12.740Z,3.60
2022-09-22T23:06:43.716Z,3.42
2022-09-22T23:09:14.110Z,4.10
2022-09-22T23:11:43.302Z,3.55
2022-09-22T23:14:13.204Z,3.05
2022-09-22T23:16:44.111Z,3.60
2022-09-22T23:19:13.662Z,4.75
2022-09-22T23:21:41.332Z,3.08
2022-09-22T23:24:09.816Z,3.00
2022-09-22T23:26:38.019Z,2.63
2022-09-22T23:29:06.669Z,3.08
2022-09-22T23:31:34.427Z,3.15
2022-09-22T23:34:03.413Z,2.90
2022-09-22T23:36:31.026Z,3.08
2022-09-22T23:39:01.842Z,2.78
2022-09-22T23:41:30.012Z,2.63
2022-09-22T23:43:57.696Z,2.60
2022-09-22T23:46:25.498Z,2.83
2022-09-22T23:48:55.285Z,2.25
2022-09-22T23:51:24.877Z,2.70
2022-09-22T23:53:52.716Z,3.33
2022-09-22T23:56:20.436Z,2.88
2022-09-22T23:58:48.313Z,2.60
